WXM80 ListenWXM80 Stop

You find our weather info also at:

UK Metoffice

WeatherCloud

Weather Underground

Northeastern Weather Network

AWEKAS

Citizen Weather Observer Program (CWOP)

HAMweather, WeatherForYou, PWS Weather


Weather Underground History page Text

Daily Summary for October 13, 2017 Units:  Both    English   Metric
« Previous Day
Next Day »
Daily Weekly Monthly Yearly Custom
  High: Low: Average:
Temperature: 70.8 °F /  21.6 °C 54.3 °F /  12.4 °C 60.6 °F /  15.9 °C
Dew Point: 59.2 °F /  15.1 °C 48.8 °F /  9.3 °C 55 °F /  12.8 °C
Humidity: 92 % 60 % 82 %
Wind Speed: 9.4 mph /  15.1 km/h - 2.7 mph /  4.3 km/h
Wind Gust: 15.0 mph /  24.1 km/h - -
Wind:- - East
Pressure: 30.41 in /  1029.7 hPa 30.25 in /  1024.3 hPa -
Precipitation: 0.00 in /  0 mm    
Historical Graphs
 
 
Tabular Data for October 13, 2017
Time Temperature Dew Point Pressure Wind Wind Speed Wind Gust Humidity Rainfall Rate (Hourly)
00:01 55.9 °F /  13.3 °C 49.5 °F /  9.7 °C 30.35 in /  1027.7 hPa East 0.7 mph /  1.1 km/h 3.5 mph /  5.6 km/h 79 % 0.00 in /  0 mm
00:06 55.7 °F /  13.2 °C 48.9 °F /  9.4 °C 30.35 in /  1027.7 hPa SSE 0.7 mph /  1.1 km/h 5.8 mph /  9.3 km/h 78 % 0.00 in /  0 mm
00:11 55.5 °F /  13.1 °C 49.1 °F /  9.5 °C 30.35 in /  1027.7 hPa ESE 1.8 mph /  2.9 km/h 3.0 mph /  4.8 km/h 79 % 0.00 in /  0 mm
00:16 55.4 °F /  13 °C 49.0 °F /  9.4 °C 30.39 in /  1029 hPa SE 1.3 mph /  2.1 km/h 3.5 mph /  5.6 km/h 79 % 0.00 in /  0 mm
00:21 55.2 °F /  12.9 °C 48.8 °F /  9.3 °C 30.37 in /  1028.3 hPa SE 1.8 mph /  2.9 km/h 5.8 mph /  9.3 km/h 79 % 0.00 in /  0 mm
00:26 55.1 °F /  12.8 °C 49.0 °F /  9.4 °C 30.39 in /  1029 hPa ESE 1.0 mph /  1.6 km/h 4.6 mph /  7.4 km/h 80 % 0.00 in /  0 mm
00:31 55.0 °F /  12.8 °C 48.9 °F /  9.4 °C 30.36 in /  1028 hPa SE 0.6 mph /  1 km/h 2.3 mph /  3.7 km/h 80 % 0.00 in /  0 mm
00:36 54.9 °F /  12.7 °C 49.5 °F /  9.7 °C 30.40 in /  1029.3 hPa ESE 1.3 mph /  2.1 km/h 2.3 mph /  3.7 km/h 82 % 0.00 in /  0 mm
00:41 54.8 °F /  12.7 °C 49.7 °F /  9.8 °C 30.40 in /  1029.3 hPa ENE 2.1 mph /  3.4 km/h 6.9 mph /  11.1 km/h 83 % 0.00 in /  0 mm
00:46 54.8 °F /  12.7 °C 49.7 °F /  9.8 °C 30.40 in /  1029.3 hPa ENE 0.9 mph /  1.4 km/h 2.3 mph /  3.7 km/h 83 % 0.00 in /  0 mm
00:51 54.8 °F /  12.7 °C 49.7 °F /  9.8 °C 30.40 in /  1029.3 hPa East 1.8 mph /  2.9 km/h 3.5 mph /  5.6 km/h 83 % 0.00 in /  0 mm
00:56 54.9 °F /  12.7 °C 49.8 °F /  9.9 °C 30.36 in /  1028 hPa ESE 0.4 mph /  0.6 km/h 2.0 mph /  3.2 km/h 83 % 0.00 in /  0 mm
01:01 54.8 °F /  12.7 °C 49.7 °F /  9.8 °C 30.37 in /  1028.3 hPa East 1.1 mph /  1.8 km/h 2.3 mph /  3.7 km/h 83 % 0.00 in /  0 mm
01:06 54.9 °F /  12.7 °C 49.8 °F /  9.9 °C 30.37 in /  1028.3 hPa SSE 0.9 mph /  1.4 km/h 7.0 mph /  11.3 km/h 83 % 0.00 in /  0 mm
01:11 54.8 °F /  12.7 °C 49.7 °F /  9.8 °C 30.37 in /  1028.3 hPa SE 2.1 mph /  3.4 km/h 3.5 mph /  5.6 km/h 83 % 0.00 in /  0 mm
01:16 54.8 °F /  12.7 °C 49.7 °F /  9.8 °C 30.37 in /  1028.3 hPa SE 1.8 mph /  2.9 km/h 3.5 mph /  5.6 km/h 83 % 0.00 in /  0 mm
01:21 54.8 °F /  12.7 °C 49.7 °F /  9.8 °C 30.37 in /  1028.3 hPa ESE 1.1 mph /  1.8 km/h 4.6 mph /  7.4 km/h 83 % 0.00 in /  0 mm
01:26 54.6 °F /  12.6 °C 49.5 °F /  9.7 °C 30.37 in /  1028.3 hPa Calm   2.3 mph /  3.7 km/h 83 % 0.00 in /  0 mm
01:27 54.7 °F /  12.6 °C 49.6 °F /  9.8 °C 30.36 in /  1028 hPa ESE 0.1 mph /  0.2 km/h 1.0 mph /  1.6 km/h 83 % 0.00 in /  0 mm
01:32 54.6 °F /  12.6 °C 49.9 °F /  9.9 °C 30.37 in /  1028.3 hPa SE 1.2 mph /  1.9 km/h 2.3 mph /  3.7 km/h 84 % 0.00 in /  0 mm
01:37 54.5 °F /  12.5 °C 49.8 °F /  9.9 °C 30.37 in /  1028.3 hPa ESE 0.6 mph /  1 km/h 2.3 mph /  3.7 km/h 84 % 0.00 in /  0 mm
01:42 54.5 °F /  12.5 °C 49.8 °F /  9.9 °C 30.37 in /  1028.3 hPa ESE 0.7 mph /  1.1 km/h 2.0 mph /  3.2 km/h 84 % 0.00 in /  0 mm
01:47 54.4 °F /  12.4 °C 49.7 °F /  9.8 °C 30.37 in /  1028.3 hPa SE 0.2 mph /  0.3 km/h 1.2 mph /  1.9 km/h 84 % 0.00 in /  0 mm
01:52 54.4 °F /  12.4 °C 49.7 °F /  9.8 °C 30.36 in /  1028 hPa ESE 1.0 mph /  1.6 km/h 2.3 mph /  3.7 km/h 84 % 0.00 in /  0 mm
01:57 54.4 °F /  12.4 °C 50.0 °F /  10 °C 30.41 in /  1029.7 hPa East 0.5 mph /  0.8 km/h 1.2 mph /  1.9 km/h 85 % 0.00 in /  0 mm
02:02 54.3 °F /  12.4 °C 49.9 °F /  9.9 °C 30.40 in /  1029.3 hPa East 0.4 mph /  0.6 km/h 1.2 mph /  1.9 km/h 85 % 0.00 in /  0 mm
02:07 54.3 °F /  12.4 °C 49.9 °F /  9.9 °C 30.37 in /  1028.3 hPa East 1.1 mph /  1.8 km/h 2.3 mph /  3.7 km/h 85 % 0.00 in /  0 mm
02:12 54.3 °F /  12.4 °C 49.9 °F /  9.9 °C 30.36 in /  1028 hPa East 1.2 mph /  1.9 km/h 2.3 mph /  3.7 km/h 85 % 0.00 in /  0 mm
02:17 54.3 °F /  12.4 °C 49.9 °F /  9.9 °C 30.37 in /  1028.3 hPa East 1.4 mph /  2.3 km/h 2.3 mph /  3.7 km/h 85 % 0.00 in /  0 mm
02:22 54.4 °F /  12.4 °C 50.3 °F /  10.2 °C 30.36 in /  1028 hPa East 1.7 mph /  2.7 km/h 3.5 mph /  5.6 km/h 86 % 0.00 in /  0 mm
02:27 54.5 °F /  12.5 °C 50.4 °F /  10.2 °C 30.36 in /  1028 hPa East 1.8 mph /  2.9 km/h 3.5 mph /  5.6 km/h 86 % 0.00 in /  0 mm
02:32 54.6 °F /  12.6 °C 50.8 °F /  10.4 °C 30.36 in /  1028 hPa East 1.6 mph /  2.6 km/h 2.3 mph /  3.7 km/h 87 % 0.00 in /  0 mm
02:37 54.7 °F /  12.6 °C 50.9 °F /  10.5 °C 30.36 in /  1028 hPa East 1.4 mph /  2.3 km/h 3.5 mph /  5.6 km/h 87 % 0.00 in /  0 mm
02:43 54.8 °F /  12.7 °C 51.0 °F /  10.6 °C 30.35 in /  1027.7 hPa ENE 1.1 mph /  1.8 km/h 3.5 mph /  5.6 km/h 87 % 0.00 in /  0 mm
02:48 55.0 °F /  12.8 °C 51.2 °F /  10.7 °C 30.36 in /  1028 hPa East 1.3 mph /  2.1 km/h 2.3 mph /  3.7 km/h 87 % 0.00 in /  0 mm
02:53 55.0 °F /  12.8 °C 51.2 °F /  10.7 °C 30.36 in /  1028 hPa East 1.8 mph /  2.9 km/h 3.5 mph /  5.6 km/h 87 % 0.00 in /  0 mm
02:58 55.2 °F /  12.9 °C 51.4 °F /  10.8 °C 30.36 in /  1028 hPa East 3.2 mph /  5.1 km/h 5.0 mph /  8 km/h 87 % 0.00 in /  0 mm
03:03 55.4 °F /  13 °C 51.6 °F /  10.9 °C 30.36 in /  1028 hPa ENE 4.9 mph /  7.9 km/h 8.0 mph /  12.9 km/h 87 % 0.00 in /  0 mm
03:08 55.7 °F /  13.2 °C 52.2 °F /  11.2 °C 30.36 in /  1028 hPa ENE 5.8 mph /  9.3 km/h 11.5 mph /  18.5 km/h 88 % 0.00 in /  0 mm
03:13 55.8 °F /  13.2 °C 52.0 °F /  11.1 °C 30.35 in /  1027.7 hPa East 3.3 mph /  5.3 km/h 5.8 mph /  9.3 km/h 87 % 0.00 in /  0 mm
03:18 55.9 °F /  13.3 °C 52.1 °F /  11.2 °C 30.35 in /  1027.7 hPa East 6.5 mph /  10.5 km/h 11.0 mph /  17.7 km/h 87 % 0.00 in /  0 mm
03:23 56.0 °F /  13.3 °C 52.2 °F /  11.2 °C 30.35 in /  1027.7 hPa ENE 7.7 mph /  12.4 km/h 15.0 mph /  24.1 km/h 87 % 0.00 in /  0 mm
03:28 56.0 °F /  13.3 °C 52.2 °F /  11.2 °C 30.36 in /  1028 hPa ENE 6.6 mph /  10.6 km/h 10.4 mph /  16.7 km/h 87 % 0.00 in /  0 mm
03:33 56.1 °F /  13.4 °C 52.3 °F /  11.3 °C 30.35 in /  1027.7 hPa East 4.9 mph /  7.9 km/h 10.0 mph /  16.1 km/h 87 % 0.00 in /  0 mm
03:38 56.1 °F /  13.4 °C 52.3 °F /  11.3 °C 30.35 in /  1027.7 hPa ENE 9.4 mph /  15.1 km/h 13.8 mph /  22.2 km/h 87 % 0.00 in /  0 mm
03:43 56.0 °F /  13.3 °C 51.9 °F /  11.1 °C 30.36 in /  1028 hPa East 6.9 mph /  11.1 km/h 11.5 mph /  18.5 km/h 86 % 0.00 in /  0 mm
03:48 55.9 °F /  13.3 °C 51.8 °F /  11 °C 30.36 in /  1028 hPa ENE 7.9 mph /  12.7 km/h 11.5 mph /  18.5 km/h 86 % 0.00 in /  0 mm
03:53 55.8 °F /  13.2 °C 51.7 °F /  10.9 °C 30.35 in /  1027.7 hPa ENE 7.5 mph /  12.1 km/h 11.5 mph /  18.5 km/h 86 % 0.00 in /  0 mm
03:58 55.7 °F /  13.2 °C 51.6 °F /  10.9 °C 30.36 in /  1028 hPa NE 7.6 mph /  12.2 km/h 13.8 mph /  22.2 km/h 86 % 0.00 in /  0 mm
04:03 55.7 °F /  13.2 °C 51.9 °F /  11.1 °C 30.36 in /  1028 hPa ENE 8.3 mph /  13.4 km/h 11.5 mph /  18.5 km/h 87 % 0.00 in /  0 mm
04:08 55.7 °F /  13.2 °C 51.6 °F /  10.9 °C 30.35 in /  1027.7 hPa ENE 8.2 mph /  13.2 km/h 15.0 mph /  24.1 km/h 86 % 0.00 in /  0 mm
04:13 55.7 °F /  13.2 °C 51.9 °F /  11.1 °C 30.36 in /  1028 hPa ENE 4.9 mph /  7.9 km/h 8.0 mph /  12.9 km/h 87 % 0.00 in /  0 mm
04:18 55.7 °F /  13.2 °C 51.9 °F /  11.1 °C 30.36 in /  1028 hPa ENE 8.0 mph /  12.9 km/h 12.7 mph /  20.4 km/h 87 % 0.00 in /  0 mm
04:23 55.7 °F /  13.2 °C 51.6 °F /  10.9 °C 30.36 in /  1028 hPa ENE 6.1 mph /  9.8 km/h 11.5 mph /  18.5 km/h 86 % 0.00 in /  0 mm
04:28 55.7 °F /  13.2 °C 51.9 °F /  11.1 °C 30.36 in /  1028 hPa East 6.2 mph /  10 km/h 9.2 mph /  14.8 km/h 87 % 0.00 in /  0 mm
04:34 55.7 °F /  13.2 °C 51.9 °F /  11.1 °C 30.36 in /  1028 hPa NE 7.2 mph /  11.6 km/h 12.7 mph /  20.4 km/h 87 % 0.00 in /  0 mm
04:39 55.7 °F /  13.2 °C 51.9 °F /  11.1 °C 30.36 in /  1028 hPa ENE 5.1 mph /  8.2 km/h 10.4 mph /  16.7 km/h 87 % 0.00 in /  0 mm
04:44 55.7 °F /  13.2 °C 51.9 °F /  11.1 °C 30.36 in /  1028 hPa ENE 3.9 mph /  6.3 km/h 8.1 mph /  13 km/h 87 % 0.00 in /  0 mm
04:49 55.7 °F /  13.2 °C 52.2 °F /  11.2 °C 30.36 in /  1028 hPa ENE 4.1 mph /  6.6 km/h 9.2 mph /  14.8 km/h 88 % 0.00 in /  0 mm
04:54 55.7 °F /  13.2 °C 51.9 °F /  11.1 °C 30.40 in /  1029.3 hPa ENE 5.7 mph /  9.2 km/h 11.5 mph /  18.5 km/h 87 % 0.00 in /  0 mm
04:59 55.7 °F /  13.2 °C 51.9 °F /  11.1 °C 30.40 in /  1029.3 hPa ENE 6.2 mph /  10 km/h 11.5 mph /  18.5 km/h 87 % 0.00 in /  0 mm
05:04 55.7 °F /  13.2 °C 52.2 °F /  11.2 °C 30.41 in /  1029.7 hPa ENE 3.9 mph /  6.3 km/h 6.9 mph /  11.1 km/h 88 % 0.00 in /  0 mm
05:09 55.8 °F /  13.2 °C 52.3 °F /  11.3 °C 30.37 in /  1028.3 hPa ENE 4.5 mph /  7.2 km/h 6.9 mph /  11.1 km/h 88 % 0.00 in /  0 mm
05:14 55.8 °F /  13.2 °C 52.0 °F /  11.1 °C 30.37 in /  1028.3 hPa ENE 7.7 mph /  12.4 km/h 11.5 mph /  18.5 km/h 87 % 0.00 in /  0 mm
05:19 55.8 °F /  13.2 °C 52.3 °F /  11.3 °C 30.37 in /  1028.3 hPa ENE 4.1 mph /  6.6 km/h 13.0 mph /  20.9 km/h 88 % 0.00 in /  0 mm
05:24 55.9 °F /  13.3 °C 52.4 °F /  11.3 °C 30.36 in /  1028 hPa ENE 5.0 mph /  8 km/h 8.1 mph /  13 km/h 88 % 0.00 in /  0 mm
05:29 55.9 °F /  13.3 °C 52.4 °F /  11.3 °C 30.41 in /  1029.7 hPa ENE 3.6 mph /  5.8 km/h 6.9 mph /  11.1 km/h 88 % 0.00 in /  0 mm
05:34 56.0 °F /  13.3 °C 52.5 °F /  11.4 °C 30.40 in /  1029.3 hPa East 2.2 mph /  3.5 km/h 4.6 mph /  7.4 km/h 88 % 0.00 in /  0 mm
05:39 56.0 °F /  13.3 °C 52.5 °F /  11.4 °C 30.37 in /  1028.3 hPa East 3.3 mph /  5.3 km/h 6.9 mph /  11.1 km/h 88 % 0.00 in /  0 mm
05:44 56.1 °F /  13.4 °C 52.6 °F /  11.4 °C 30.37 in /  1028.3 hPa ENE 3.1 mph /  5 km/h 10.4 mph /  16.7 km/h 88 % 0.00 in /  0 mm
05:49 56.2 °F /  13.4 °C 52.7 °F /  11.5 °C 30.36 in /  1028 hPa NE 4.1 mph /  6.6 km/h 8.1 mph /  13 km/h 88 % 0.00 in /  0 mm
05:54 56.2 °F /  13.4 °C 52.7 °F /  11.5 °C 30.36 in /  1028 hPa ENE 5.8 mph /  9.3 km/h 9.2 mph /  14.8 km/h 88 % 0.00 in /  0 mm
05:59 56.2 °F /  13.4 °C 52.7 °F /  11.5 °C 30.37 in /  1028.3 hPa ENE 3.5 mph /  5.6 km/h 8.1 mph /  13 km/h 88 % 0.00 in /  0 mm
06:04 56.2 °F /  13.4 °C 52.7 °F /  11.5 °C 30.39 in /  1029 hPa ENE 4.0 mph /  6.4 km/h 10.4 mph /  16.7 km/h 88 % 0.00 in /  0 mm
06:09 56.3 °F /  13.5 °C 52.8 °F /  11.6 °C 30.37 in /  1028.3 hPa ENE 5.5 mph /  8.9 km/h 11.0 mph /  17.7 km/h 88 % 0.00 in /  0 mm
06:14 56.3 °F /  13.5 °C 52.8 °F /  11.6 °C 30.39 in /  1029 hPa ENE 6.4 mph /  10.3 km/h 9.2 mph /  14.8 km/h 88 % 0.00 in /  0 mm
06:19 56.3 °F /  13.5 °C 52.8 °F /  11.6 °C 30.37 in /  1028.3 hPa ENE 5.5 mph /  8.9 km/h 9.2 mph /  14.8 km/h 88 % 0.00 in /  0 mm
06:24 56.4 °F /  13.6 °C 52.9 °F /  11.6 °C 30.37 in /  1028.3 hPa East 6.4 mph /  10.3 km/h 11.5 mph /  18.5 km/h 88 % 0.00 in /  0 mm
06:30 56.3 °F /  13.5 °C 52.8 °F /  11.6 °C 30.37 in /  1028.3 hPa East 4.2 mph /  6.8 km/h 8.1 mph /  13 km/h 88 % 0.00 in /  0 mm
06:35 56.4 °F /  13.6 °C 52.9 °F /  11.6 °C 30.37 in /  1028.3 hPa East 6.8 mph /  10.9 km/h 10.4 mph /  16.7 km/h 88 % 0.00 in /  0 mm
06:40 56.4 °F /  13.6 °C 52.9 °F /  11.6 °C 30.37 in /  1028.3 hPa ENE 7.8 mph /  12.6 km/h 12.0 mph /  19.3 km/h 88 % 0.00 in /  0 mm
06:45 56.4 °F /  13.6 °C 52.9 °F /  11.6 °C 30.37 in /  1028.3 hPa ENE 5.3 mph /  8.5 km/h 9.2 mph /  14.8 km/h 88 % 0.00 in /  0 mm
06:50 56.4 °F /  13.6 °C 52.9 °F /  11.6 °C 30.37 in /  1028.3 hPa East 2.7 mph /  4.3 km/h 5.8 mph /  9.3 km/h 88 % 0.00 in /  0 mm
06:55 56.4 °F /  13.6 °C 53.2 °F /  11.8 °C 30.37 in /  1028.3 hPa ENE 5.5 mph /  8.9 km/h 13.0 mph /  20.9 km/h 89 % 0.00 in /  0 mm
07:00 56.4 °F /  13.6 °C 53.2 °F /  11.8 °C 30.37 in /  1028.3 hPa East 5.4 mph /  8.7 km/h 9.2 mph /  14.8 km/h 89 % 0.00 in /  0 mm
07:05 56.3 °F /  13.5 °C 52.8 °F /  11.6 °C 30.36 in /  1028 hPa East 6.7 mph /  10.8 km/h 10.4 mph /  16.7 km/h 88 % 0.00 in /  0 mm
07:10 56.2 °F /  13.4 °C 52.7 °F /  11.5 °C 30.37 in /  1028.3 hPa ENE 7.9 mph /  12.7 km/h 11.5 mph /  18.5 km/h 88 % 0.00 in /  0 mm
07:15 56.2 °F /  13.4 °C 52.7 °F /  11.5 °C 30.37 in /  1028.3 hPa ENE 5.6 mph /  9 km/h 10.4 mph /  16.7 km/h 88 % 0.00 in /  0 mm
07:20 56.1 °F /  13.4 °C 52.9 °F /  11.6 °C 30.37 in /  1028.3 hPa ENE 8.1 mph /  13 km/h 13.8 mph /  22.2 km/h 89 % 0.00 in /  0 mm
07:25 56.1 °F /  13.4 °C 52.9 °F /  11.6 °C 30.37 in /  1028.3 hPa ENE 7.8 mph /  12.6 km/h 11.5 mph /  18.5 km/h 89 % 0.00 in /  0 mm
07:30 56.1 °F /  13.4 °C 52.9 °F /  11.6 °C 30.38 in /  1028.7 hPa East 6.9 mph /  11.1 km/h 11.5 mph /  18.5 km/h 89 % 0.00 in /  0 mm
07:35 56.2 °F /  13.4 °C 53.0 °F /  11.7 °C 30.38 in /  1028.7 hPa ENE 6.8 mph /  10.9 km/h 11.5 mph /  18.5 km/h 89 % 0.00 in /  0 mm
07:40 56.2 °F /  13.4 °C 53.0 °F /  11.7 °C 30.38 in /  1028.7 hPa NE 4.9 mph /  7.9 km/h 9.2 mph /  14.8 km/h 89 % 0.00 in /  0 mm
07:45 56.2 °F /  13.4 °C 53.0 °F /  11.7 °C 30.37 in /  1028.3 hPa ENE 8.7 mph /  14 km/h 12.7 mph /  20.4 km/h 89 % 0.00 in /  0 mm
07:50 56.2 °F /  13.4 °C 53.0 °F /  11.7 °C 30.38 in /  1028.7 hPa ENE 6.3 mph /  10.1 km/h 10.4 mph /  16.7 km/h 89 % 0.00 in /  0 mm
07:55 56.2 °F /  13.4 °C 53.0 °F /  11.7 °C 30.38 in /  1028.7 hPa ENE 6.4 mph /  10.3 km/h 10.4 mph /  16.7 km/h 89 % 0.00 in /  0 mm
08:00 56.2 °F /  13.4 °C 53.0 °F /  11.7 °C 30.38 in /  1028.7 hPa ENE 6.0 mph /  9.7 km/h 11.5 mph /  18.5 km/h 89 % 0.00 in /  0 mm
08:05 56.2 °F /  13.4 °C 53.3 °F /  11.8 °C 30.38 in /  1028.7 hPa East 6.7 mph /  10.8 km/h 11.5 mph /  18.5 km/h 90 % 0.00 in /  0 mm
08:10 56.2 °F /  13.4 °C 53.0 °F /  11.7 °C 30.39 in /  1029 hPa ENE 5.3 mph /  8.5 km/h 9.2 mph /  14.8 km/h 89 % 0.00 in /  0 mm
08:15 56.2 °F /  13.4 °C 53.0 °F /  11.7 °C 30.39 in /  1029 hPa ENE 6.5 mph /  10.5 km/h 9.2 mph /  14.8 km/h 89 % 0.00 in /  0 mm
08:20 56.1 °F /  13.4 °C 52.9 °F /  11.6 °C 30.39 in /  1029 hPa ENE 8.4 mph /  13.5 km/h 11.5 mph /  18.5 km/h 89 % 0.00 in /  0 mm
08:25 56.1 °F /  13.4 °C 52.9 °F /  11.6 °C 30.39 in /  1029 hPa ENE 5.4 mph /  8.7 km/h 10.4 mph /  16.7 km/h 89 % 0.00 in /  0 mm
08:30 56.1 °F /  13.4 °C 52.9 °F /  11.6 °C 30.39 in /  1029 hPa ENE 7.9 mph /  12.7 km/h 11.5 mph /  18.5 km/h 89 % 0.00 in /  0 mm
08:35 56.0 °F /  13.3 °C 52.8 °F /  11.6 °C 30.39 in /  1029 hPa East 5.7 mph /  9.2 km/h 8.0 mph /  12.9 km/h 89 % 0.00 in /  0 mm
08:40 56.0 °F /  13.3 °C 52.8 °F /  11.6 °C 30.39 in /  1029 hPa ENE 5.7 mph /  9.2 km/h 9.0 mph /  14.5 km/h 89 % 0.00 in /  0 mm
08:45 56.1 °F /  13.4 °C 53.2 °F /  11.8 °C 30.39 in /  1029 hPa ENE 6.6 mph /  10.6 km/h 7.0 mph /  11.3 km/h 90 % 0.00 in /  0 mm
08:50 56.2 °F /  13.4 °C 53.3 °F /  11.8 °C 30.39 in /  1029 hPa East 5.4 mph /  8.7 km/h 9.2 mph /  14.8 km/h 90 % 0.00 in /  0 mm
08:55 56.3 °F /  13.5 °C 53.4 °F /  11.9 °C 30.38 in /  1028.7 hPa East 4.7 mph /  7.6 km/h 8.1 mph /  13 km/h 90 % 0.00 in /  0 mm
09:00 56.3 °F /  13.5 °C 53.4 °F /  11.9 °C 30.39 in /  1029 hPa ENE 5.5 mph /  8.9 km/h 9.2 mph /  14.8 km/h 90 % 0.00 in /  0 mm
09:06 56.3 °F /  13.5 °C 53.4 °F /  11.9 °C 30.39 in /  1029 hPa ENE 6.4 mph /  10.3 km/h 11.5 mph /  18.5 km/h 90 % 0.00 in /  0 mm
09:11 56.3 °F /  13.5 °C 53.4 °F /  11.9 °C 30.39 in /  1029 hPa ENE 6.0 mph /  9.7 km/h 15.0 mph /  24.1 km/h 90 % 0.00 in /  0 mm
09:16 56.3 °F /  13.5 °C 53.4 °F /  11.9 °C 30.39 in /  1029 hPa ENE 5.0 mph /  8 km/h 9.0 mph /  14.5 km/h 90 % 0.00 in /  0 mm
09:21 56.4 °F /  13.6 °C 53.5 °F /  11.9 °C 30.38 in /  1028.7 hPa ENE 7.0 mph /  11.3 km/h 12.0 mph /  19.3 km/h 90 % 0.00 in /  0 mm
09:26 56.4 °F /  13.6 °C 53.5 °F /  11.9 °C 30.38 in /  1028.7 hPa ENE 7.0 mph /  11.3 km/h 14.0 mph /  22.5 km/h 90 % 0.00 in /  0 mm
09:31 56.5 °F /  13.6 °C 53.6 °F /  12 °C 30.38 in /  1028.7 hPa ENE 6.0 mph /  9.7 km/h 14.0 mph /  22.5 km/h 90 % 0.00 in /  0 mm
09:36 56.5 °F /  13.6 °C 53.6 °F /  12 °C 30.38 in /  1028.7 hPa ENE 7.0 mph /  11.3 km/h 10.0 mph /  16.1 km/h 90 % 0.00 in /  0 mm
09:41 56.7 °F /  13.7 °C 54.1 °F /  12.3 °C 30.38 in /  1028.7 hPa ENE 3.0 mph /  4.8 km/h 10.0 mph /  16.1 km/h 91 % 0.00 in /  0 mm
09:46 57.0 °F /  13.9 °C 54.4 °F /  12.4 °C 30.38 in /  1028.7 hPa ENE 3.0 mph /  4.8 km/h 12.0 mph /  19.3 km/h 91 % 0.00 in /  0 mm
09:51 57.1 °F /  13.9 °C 54.2 °F /  12.3 °C 30.38 in /  1028.7 hPa NE 4.8 mph /  7.7 km/h 8.0 mph /  12.9 km/h 90 % 0.00 in /  0 mm
09:56 57.2 °F /  14 °C 54.3 °F /  12.4 °C 30.38 in /  1028.7 hPa NE 3.7 mph /  6 km/h 10.4 mph /  16.7 km/h 90 % 0.00 in /  0 mm
10:01 57.7 °F /  14.3 °C 55.1 °F /  12.8 °C 30.38 in /  1028.7 hPa ENE 2.8 mph /  4.5 km/h 8.1 mph /  13 km/h 91 % 0.00 in /  0 mm
10:06 58.5 °F /  14.7 °C 55.9 °F /  13.3 °C 30.38 in /  1028.7 hPa ENE 2.0 mph /  3.2 km/h 4.6 mph /  7.4 km/h 91 % 0.00 in /  0 mm
10:11 59.0 °F /  15 °C 55.1 °F /  12.8 °C 30.38 in /  1028.7 hPa ENE 2.3 mph /  3.7 km/h 4.6 mph /  7.4 km/h 87 % 0.00 in /  0 mm
10:16 59.6 °F /  15.3 °C 55.1 °F /  12.8 °C 30.38 in /  1028.7 hPa ENE 2.7 mph /  4.3 km/h 3.5 mph /  5.6 km/h 85 % 0.00 in /  0 mm
10:21 60.1 °F /  15.6 °C 55.2 °F /  12.9 °C 30.39 in /  1029 hPa East 1.1 mph /  1.8 km/h 3.5 mph /  5.6 km/h 84 % 0.00 in /  0 mm
10:26 60.5 °F /  15.8 °C 54.3 °F /  12.4 °C 30.38 in /  1028.7 hPa ESE 1.3 mph /  2.1 km/h 3.5 mph /  5.6 km/h 80 % 0.00 in /  0 mm
10:31 60.8 °F /  16 °C 54.2 °F /  12.3 °C 30.39 in /  1029 hPa ENE 1.6 mph /  2.6 km/h 3.5 mph /  5.6 km/h 79 % 0.00 in /  0 mm
10:36 61.2 °F /  16.2 °C 53.9 °F /  12.2 °C 30.39 in /  1029 hPa ESE 2.5 mph /  4 km/h 4.6 mph /  7.4 km/h 77 % 0.00 in /  0 mm
10:41 61.5 °F /  16.4 °C 54.2 °F /  12.3 °C 30.39 in /  1029 hPa ENE 1.5 mph /  2.4 km/h 3.5 mph /  5.6 km/h 77 % 0.00 in /  0 mm
10:44 61.6 °F /  16.4 °C 54.0 °F /  12.2 °C 30.39 in /  1029 hPa ENE 1.0 mph /  1.6 km/h 2.3 mph /  3.7 km/h 76 % 0.00 in /  0 mm
10:49 61.7 °F /  16.5 °C 54.1 °F /  12.3 °C 30.39 in /  1029 hPa ENE 0.9 mph /  1.4 km/h 2.3 mph /  3.7 km/h 76 % 0.00 in /  0 mm
10:54 61.8 °F /  16.6 °C 53.8 °F /  12.1 °C 30.39 in /  1029 hPa NE 1.1 mph /  1.8 km/h 3.5 mph /  5.6 km/h 75 % 0.00 in /  0 mm
10:59 62.1 °F /  16.7 °C 54.4 °F /  12.4 °C 30.39 in /  1029 hPa ENE 1.2 mph /  1.9 km/h 3.5 mph /  5.6 km/h 76 % 0.00 in /  0 mm
11:04 62.5 °F /  16.9 °C 54.5 °F /  12.5 °C 30.39 in /  1029 hPa ENE 2.0 mph /  3.2 km/h 4.6 mph /  7.4 km/h 75 % 0.00 in /  0 mm
11:09 62.8 °F /  17.1 °C 54.8 °F /  12.7 °C 30.39 in /  1029 hPa ENE 0.9 mph /  1.4 km/h 3.5 mph /  5.6 km/h 75 % 0.00 in /  0 mm
11:14 63.1 °F /  17.3 °C 54.7 °F /  12.6 °C 30.38 in /  1028.7 hPa ENE 0.4 mph /  0.6 km/h 2.3 mph /  3.7 km/h 74 % 0.00 in /  0 mm
11:19 63.5 °F /  17.5 °C 55.1 °F /  12.8 °C 30.38 in /  1028.7 hPa ENE 1.2 mph /  1.9 km/h 3.5 mph /  5.6 km/h 74 % 0.00 in /  0 mm
11:24 64.3 °F /  17.9 °C 55.1 °F /  12.8 °C 30.38 in /  1028.7 hPa NE 0.5 mph /  0.8 km/h 1.2 mph /  1.9 km/h 72 % 0.00 in /  0 mm
11:29 64.9 °F /  18.3 °C 55.3 °F /  12.9 °C 30.38 in /  1028.7 hPa NNE 0.8 mph /  1.3 km/h 2.3 mph /  3.7 km/h 71 % 0.00 in /  0 mm
11:34 65.3 °F /  18.5 °C 55.3 °F /  12.9 °C 30.38 in /  1028.7 hPa NE 2.8 mph /  4.5 km/h 5.0 mph /  8 km/h 70 % 0.00 in /  0 mm
11:39 65.5 °F /  18.6 °C 55.5 °F /  13.1 °C 30.38 in /  1028.7 hPa NE 1.4 mph /  2.3 km/h 3.5 mph /  5.6 km/h 70 % 0.00 in /  0 mm
11:44 66.3 °F /  19.1 °C 56.2 °F /  13.4 °C 30.38 in /  1028.7 hPa ENE 3.0 mph /  4.8 km/h 4.6 mph /  7.4 km/h 70 % 0.00 in /  0 mm
11:49 67.2 °F /  19.6 °C 56.7 °F /  13.7 °C 30.37 in /  1028.3 hPa NE 1.6 mph /  2.6 km/h 6.9 mph /  11.1 km/h 69 % 0.00 in /  0 mm
11:54 68.1 °F /  20.1 °C 57.5 °F /  14.2 °C 30.37 in /  1028.3 hPa NE 2.8 mph /  4.5 km/h 6.9 mph /  11.1 km/h 69 % 0.00 in /  0 mm
11:59 68.5 °F /  20.3 °C 56.7 °F /  13.7 °C 30.37 in /  1028.3 hPa NE 3.7 mph /  6 km/h 4.6 mph /  7.4 km/h 66 % 0.00 in /  0 mm
12:04 68.8 °F /  20.4 °C 56.6 °F /  13.7 °C 30.37 in /  1028.3 hPa ENE 3.3 mph /  5.3 km/h 7.0 mph /  11.3 km/h 65 % 0.00 in /  0 mm
12:10 68.8 °F /  20.4 °C 56.1 °F /  13.4 °C 30.37 in /  1028.3 hPa East 2.8 mph /  4.5 km/h 5.0 mph /  8 km/h 64 % 0.00 in /  0 mm
12:15 68.7 °F /  20.4 °C 56.9 °F /  13.8 °C 30.36 in /  1028 hPa NE 3.0 mph /  4.8 km/h 4.6 mph /  7.4 km/h 66 % 0.00 in /  0 mm
12:20 69.0 °F /  20.6 °C 57.6 °F /  14.2 °C 30.36 in /  1028 hPa ENE 2.2 mph /  3.5 km/h 4.6 mph /  7.4 km/h 67 % 0.00 in /  0 mm
12:25 69.2 °F /  20.7 °C 56.9 °F /  13.8 °C 30.36 in /  1028 hPa ENE 0.3 mph /  0.5 km/h 2.3 mph /  3.7 km/h 65 % 0.00 in /  0 mm
12:30 69.5 °F /  20.8 °C 56.3 °F /  13.5 °C 30.36 in /  1028 hPa ENE 2.3 mph /  3.7 km/h 3.5 mph /  5.6 km/h 63 % 0.00 in /  0 mm
12:35 69.4 °F /  20.8 °C 55.8 °F /  13.2 °C 30.36 in /  1028 hPa NE 4.1 mph /  6.6 km/h 6.9 mph /  11.1 km/h 62 % 0.00 in /  0 mm
12:40 69.6 °F /  20.9 °C 56.9 °F /  13.8 °C 30.35 in /  1027.7 hPa NE 1.3 mph /  2.1 km/h 2.3 mph /  3.7 km/h 64 % 0.00 in /  0 mm
12:45 69.7 °F /  20.9 °C 55.2 °F /  12.9 °C 30.35 in /  1027.7 hPa ENE 2.7 mph /  4.3 km/h 5.0 mph /  8 km/h 60 % 0.00 in /  0 mm
12:50 69.7 °F /  20.9 °C 55.6 °F /  13.1 °C 30.35 in /  1027.7 hPa ENE 2.5 mph /  4 km/h 9.2 mph /  14.8 km/h 61 % 0.00 in /  0 mm
12:55 69.6 °F /  20.9 °C 56.9 °F /  13.8 °C 30.35 in /  1027.7 hPa NE 3.9 mph /  6.3 km/h 8.0 mph /  12.9 km/h 64 % 0.00 in /  0 mm
13:00 69.7 °F /  20.9 °C 57.0 °F /  13.9 °C 30.35 in /  1027.7 hPa ENE 2.4 mph /  3.9 km/h 3.5 mph /  5.6 km/h 64 % 0.00 in /  0 mm
13:05 69.7 °F /  20.9 °C 55.6 °F /  13.1 °C 30.35 in /  1027.7 hPa ENE 3.6 mph /  5.8 km/h 8.1 mph /  13 km/h 61 % 0.00 in /  0 mm
13:10 69.7 °F /  20.9 °C 56.1 °F /  13.4 °C 30.35 in /  1027.7 hPa NE 1.6 mph /  2.6 km/h 3.5 mph /  5.6 km/h 62 % 0.00 in /  0 mm
13:15 70.0 °F /  21.1 °C 57.3 °F /  14.1 °C 30.35 in /  1027.7 hPa ENE 2.9 mph /  4.7 km/h 4.6 mph /  7.4 km/h 64 % 0.00 in /  0 mm
13:20 70.1 °F /  21.2 °C 56.5 °F /  13.6 °C 30.34 in /  1027.3 hPa ENE 2.9 mph /  4.7 km/h 4.0 mph /  6.4 km/h 62 % 0.00 in /  0 mm
13:25 70.2 °F /  21.2 °C 57.0 °F /  13.9 °C 30.34 in /  1027.3 hPa East 3.4 mph /  5.5 km/h 10.4 mph /  16.7 km/h 63 % 0.00 in /  0 mm
13:30 70.1 °F /  21.2 °C 56.9 °F /  13.8 °C 30.34 in /  1027.3 hPa ENE 1.9 mph /  3.1 km/h 4.6 mph /  7.4 km/h 63 % 0.00 in /  0 mm
13:35 70.3 °F /  21.3 °C 56.7 °F /  13.7 °C 30.34 in /  1027.3 hPa East 2.4 mph /  3.9 km/h 4.6 mph /  7.4 km/h 62 % 0.00 in /  0 mm
13:40 70.6 °F /  21.4 °C 57.4 °F /  14.1 °C 30.34 in /  1027.3 hPa ENE 3.8 mph /  6.1 km/h 3.8 mph /  6.1 km/h 63 % 0.00 in /  0 mm
13:46 70.8 °F /  21.6 °C 57.6 °F /  14.2 °C 30.34 in /  1027.3 hPa ENE 3.4 mph /  5.5 km/h 7.0 mph /  11.3 km/h 63 % 0.00 in /  0 mm
13:51 70.6 °F /  21.4 °C 56.9 °F /  13.8 °C 30.34 in /  1027.3 hPa ENE 3.0 mph /  4.8 km/h 8.0 mph /  12.9 km/h 62 % 0.00 in /  0 mm
13:56 70.6 °F /  21.4 °C 56.5 °F /  13.6 °C 30.34 in /  1027.3 hPa ENE 3.0 mph /  4.8 km/h 8.0 mph /  12.9 km/h 61 % 0.00 in /  0 mm
14:01 70.2 °F /  21.2 °C 56.6 °F /  13.7 °C 30.34 in /  1027.3 hPa ENE 2.6 mph /  4.2 km/h 8.1 mph /  13 km/h 62 % 0.00 in /  0 mm
14:06 69.8 °F /  21 °C 56.2 °F /  13.4 °C 30.33 in /  1027 hPa ENE 4.5 mph /  7.2 km/h 6.9 mph /  11.1 km/h 62 % 0.00 in /  0 mm
14:11 69.4 °F /  20.8 °C 56.7 °F /  13.7 °C 30.33 in /  1027 hPa ENE 3.5 mph /  5.6 km/h 6.9 mph /  11.1 km/h 64 % 0.00 in /  0 mm
14:16 69.1 °F /  20.6 °C 56.4 °F /  13.6 °C 30.33 in /  1027 hPa ENE 3.2 mph /  5.1 km/h 5.8 mph /  9.3 km/h 64 % 0.00 in /  0 mm
14:21 68.4 °F /  20.2 °C 56.6 °F /  13.7 °C 30.33 in /  1027 hPa ENE 5.2 mph /  8.4 km/h 7.0 mph /  11.3 km/h 66 % 0.00 in /  0 mm
14:26 68.0 °F /  20 °C 56.6 °F /  13.7 °C 30.32 in /  1026.6 hPa ENE 5.5 mph /  8.9 km/h 9.0 mph /  14.5 km/h 67 % 0.00 in /  0 mm
14:31 67.9 °F /  19.9 °C 56.9 °F /  13.8 °C 30.33 in /  1027 hPa East 4.0 mph /  6.4 km/h 4.6 mph /  7.4 km/h 68 % 0.00 in /  0 mm
14:37 67.7 °F /  19.8 °C 56.8 °F /  13.8 °C 30.33 in /  1027 hPa ENE 3.3 mph /  5.3 km/h 9.2 mph /  14.8 km/h 68 % 0.00 in /  0 mm
14:42 67.4 °F /  19.7 °C 56.5 °F /  13.6 °C 30.33 in /  1027 hPa ENE 5.5 mph /  8.9 km/h 11.5 mph /  18.5 km/h 68 % 0.00 in /  0 mm
14:47 67.1 °F /  19.5 °C 57.0 °F /  13.9 °C 30.32 in /  1026.6 hPa ENE 4.1 mph /  6.6 km/h 10.4 mph /  16.7 km/h 70 % 0.00 in /  0 mm
14:52 66.9 °F /  19.4 °C 57.2 °F /  14 °C 30.32 in /  1026.6 hPa ENE 4.0 mph /  6.4 km/h 6.9 mph /  11.1 km/h 71 % 0.00 in /  0 mm
14:57 66.6 °F /  19.2 °C 56.9 °F /  13.8 °C 30.32 in /  1026.6 hPa East 3.1 mph /  5 km/h 5.8 mph /  9.3 km/h 71 % 0.00 in /  0 mm
15:02 66.3 °F /  19.1 °C 57.4 °F /  14.1 °C 30.32 in /  1026.6 hPa NE 4.0 mph /  6.4 km/h 6.9 mph /  11.1 km/h 73 % 0.00 in /  0 mm
15:07 66.1 °F /  18.9 °C 57.6 °F /  14.2 °C 30.32 in /  1026.6 hPa ENE 4.9 mph /  7.9 km/h 8.1 mph /  13 km/h 74 % 0.00 in /  0 mm
15:12 65.9 °F /  18.8 °C 57.4 °F /  14.1 °C 30.32 in /  1026.6 hPa East 2.1 mph /  3.4 km/h 5.0 mph /  8 km/h 74 % 0.00 in /  0 mm
15:17 65.7 °F /  18.7 °C 57.2 °F /  14 °C 30.32 in /  1026.6 hPa East 4.2 mph /  6.8 km/h 9.2 mph /  14.8 km/h 74 % 0.00 in /  0 mm
15:22 65.5 °F /  18.6 °C 57.4 °F /  14.1 °C 30.32 in /  1026.6 hPa ENE 3.1 mph /  5 km/h 3.5 mph /  5.6 km/h 75 % 0.00 in /  0 mm
15:27 65.4 °F /  18.6 °C 57.6 °F /  14.2 °C 30.31 in /  1026.3 hPa ENE 4.6 mph /  7.4 km/h 7.0 mph /  11.3 km/h 76 % 0.00 in /  0 mm
15:32 65.3 °F /  18.5 °C 57.5 °F /  14.2 °C 30.31 in /  1026.3 hPa ENE 3.0 mph /  4.8 km/h 7.0 mph /  11.3 km/h 76 % 0.00 in /  0 mm
15:37 65.3 °F /  18.5 °C 57.9 °F /  14.4 °C 30.31 in /  1026.3 hPa ENE 3.1 mph /  5 km/h 5.8 mph /  9.3 km/h 77 % 0.00 in /  0 mm
15:42 65.4 °F /  18.6 °C 58.0 °F /  14.4 °C 30.31 in /  1026.3 hPa East 2.9 mph /  4.7 km/h 3.5 mph /  5.6 km/h 77 % 0.00 in /  0 mm
15:47 65.6 °F /  18.7 °C 58.2 °F /  14.6 °C 30.31 in /  1026.3 hPa ENE 3.7 mph /  6 km/h 5.8 mph /  9.3 km/h 77 % 0.00 in /  0 mm
15:52 65.6 °F /  18.7 °C 58.2 °F /  14.6 °C 30.31 in /  1026.3 hPa ENE 3.4 mph /  5.5 km/h 3.5 mph /  5.6 km/h 77 % 0.00 in /  0 mm
15:57 65.5 °F /  18.6 °C 58.1 °F /  14.5 °C 30.31 in /  1026.3 hPa ENE 5.4 mph /  8.7 km/h 10.0 mph /  16.1 km/h 77 % 0.00 in /  0 mm
16:02 65.4 °F /  18.6 °C 58.0 °F /  14.4 °C 30.31 in /  1026.3 hPa East 3.7 mph /  6 km/h 3.7 mph /  6 km/h 77 % 0.00 in /  0 mm
16:08 65.3 °F /  18.5 °C 58.3 °F /  14.6 °C 30.30 in /  1026 hPa ENE 1.9 mph /  3.1 km/h 3.5 mph /  5.6 km/h 78 % 0.00 in /  0 mm
16:13 65.1 °F /  18.4 °C 58.1 °F /  14.5 °C 30.30 in /  1026 hPa ENE 2.7 mph /  4.3 km/h 6.9 mph /  11.1 km/h 78 % 0.00 in /  0 mm
16:18 64.9 °F /  18.3 °C 57.9 °F /  14.4 °C 30.30 in /  1026 hPa ENE 3.3 mph /  5.3 km/h 9.2 mph /  14.8 km/h 78 % 0.00 in /  0 mm
16:23 64.8 °F /  18.2 °C 58.1 °F /  14.5 °C 30.30 in /  1026 hPa ENE 2.2 mph /  3.5 km/h 6.0 mph /  9.7 km/h 79 % 0.00 in /  0 mm
16:28 64.8 °F /  18.2 °C 58.5 °F /  14.7 °C 30.30 in /  1026 hPa ENE 1.7 mph /  2.7 km/h 3.5 mph /  5.6 km/h 80 % 0.00 in /  0 mm
16:33 64.7 °F /  18.2 °C 58.0 °F /  14.4 °C 30.30 in /  1026 hPa East 2.6 mph /  4.2 km/h 7.0 mph /  11.3 km/h 79 % 0.00 in /  0 mm
16:38 64.7 °F /  18.2 °C 58.4 °F /  14.7 °C 30.30 in /  1026 hPa East 1.7 mph /  2.7 km/h 3.5 mph /  5.6 km/h 80 % 0.00 in /  0 mm
16:43 64.7 °F /  18.2 °C 58.7 °F /  14.8 °C 30.30 in /  1026 hPa ENE 2.0 mph /  3.2 km/h 2.3 mph /  3.7 km/h 81 % 0.00 in /  0 mm
16:48 64.7 °F /  18.2 °C 58.7 °F /  14.8 °C 30.30 in /  1026 hPa ENE 0.4 mph /  0.6 km/h 1.2 mph /  1.9 km/h 81 % 0.00 in /  0 mm
16:51 64.7 °F /  18.2 °C 58.7 °F /  14.8 °C 30.30 in /  1026 hPa ENE 1.0 mph /  1.6 km/h 3.0 mph /  4.8 km/h 81 % 0.00 in /  0 mm
16:56 64.7 °F /  18.2 °C 58.7 °F /  14.8 °C 30.30 in /  1026 hPa ENE 1.0 mph /  1.6 km/h 3.0 mph /  4.8 km/h 81 % 0.00 in /  0 mm
17:01 64.7 °F /  18.2 °C 58.7 °F /  14.8 °C 30.29 in /  1025.6 hPa Calm   1.2 mph /  1.9 km/h 81 % 0.00 in /  0 mm
17:06 64.7 °F /  18.2 °C 58.4 °F /  14.7 °C 30.30 in /  1026 hPa SE 0.7 mph /  1.1 km/h 3.5 mph /  5.6 km/h 80 % 0.00 in /  0 mm
17:11 64.7 °F /  18.2 °C 58.0 °F /  14.4 °C 30.30 in /  1026 hPa SE 0.3 mph /  0.5 km/h 1.2 mph /  1.9 km/h 79 % 0.00 in /  0 mm
17:16 64.7 °F /  18.2 °C 58.0 °F /  14.4 °C 30.29 in /  1025.6 hPa SE 0.5 mph /  0.8 km/h 3.5 mph /  5.6 km/h 79 % 0.00 in /  0 mm
17:21 64.6 °F /  18.1 °C 57.6 °F /  14.2 °C 30.30 in /  1026 hPa SE 0.6 mph /  1 km/h 3.5 mph /  5.6 km/h 78 % 0.00 in /  0 mm
17:26 64.5 °F /  18.1 °C 57.8 °F /  14.3 °C 30.29 in /  1025.6 hPa SE 0.8 mph /  1.3 km/h 3.5 mph /  5.6 km/h 79 % 0.00 in /  0 mm
17:31 64.4 °F /  18 °C 57.7 °F /  14.3 °C 30.29 in /  1025.6 hPa Calm   3.5 mph /  5.6 km/h 79 % 0.00 in /  0 mm
17:36 64.4 °F /  18 °C 57.7 °F /  14.3 °C 30.29 in /  1025.6 hPa SE 0.6 mph /  1 km/h 2.0 mph /  3.2 km/h 79 % 0.00 in /  0 mm
17:41 64.3 °F /  17.9 °C 58.0 °F /  14.4 °C 30.30 in /  1026 hPa SE 0.6 mph /  1 km/h 2.3 mph /  3.7 km/h 80 % 0.00 in /  0 mm
17:46 64.2 °F /  17.9 °C 57.9 °F /  14.4 °C 30.29 in /  1025.6 hPa SE 0.1 mph /  0.2 km/h 1.2 mph /  1.9 km/h 80 % 0.00 in /  0 mm
17:51 64.1 °F /  17.8 °C 57.8 °F /  14.3 °C 30.29 in /  1025.6 hPa SE 0.6 mph /  1 km/h 2.3 mph /  3.7 km/h 80 % 0.00 in /  0 mm
17:56 64.1 °F /  17.8 °C 57.8 °F /  14.3 °C 30.34 in /  1027.3 hPa SE 0.2 mph /  0.3 km/h 2.3 mph /  3.7 km/h 80 % 0.00 in /  0 mm
18:01 64.0 °F /  17.8 °C 57.7 °F /  14.3 °C 30.29 in /  1025.6 hPa SE 0.3 mph /  0.5 km/h 2.3 mph /  3.7 km/h 80 % 0.00 in /  0 mm
18:06 63.9 °F /  17.7 °C 58.0 °F /  14.4 °C 30.29 in /  1025.6 hPa SE 0.7 mph /  1.1 km/h 2.3 mph /  3.7 km/h 81 % 0.00 in /  0 mm
18:11 63.8 °F /  17.7 °C 57.9 °F /  14.4 °C 30.30 in /  1026 hPa Calm   1.2 mph /  1.9 km/h 81 % 0.00 in /  0 mm
18:16 63.7 °F /  17.6 °C 57.8 °F /  14.3 °C 30.29 in /  1025.6 hPa Calm   1.2 mph /  1.9 km/h 81 % 0.00 in /  0 mm
18:18 63.6 °F /  17.6 °C 57.7 °F /  14.3 °C 30.30 in /  1026 hPa SE 0.3 mph /  0.5 km/h 1.2 mph /  1.9 km/h 81 % 0.00 in /  0 mm
18:23 63.6 °F /  17.6 °C 57.7 °F /  14.3 °C 30.30 in /  1026 hPa SE 0.2 mph /  0.3 km/h 3.5 mph /  5.6 km/h 81 % 0.00 in /  0 mm
18:28 63.5 °F /  17.5 °C 57.6 °F /  14.2 °C 30.29 in /  1025.6 hPa SE 3.2 mph /  5.1 km/h 4.0 mph /  6.4 km/h 81 % 0.00 in /  0 mm
18:33 63.4 °F /  17.4 °C 57.8 °F /  14.3 °C 30.29 in /  1025.6 hPa SE 0.1 mph /  0.2 km/h 1.2 mph /  1.9 km/h 82 % 0.00 in /  0 mm
18:38 63.3 °F /  17.4 °C 57.7 °F /  14.3 °C 30.29 in /  1025.6 hPa SSE 1.3 mph /  2.1 km/h 2.3 mph /  3.7 km/h 82 % 0.00 in /  0 mm
18:44 63.2 °F /  17.3 °C 57.6 °F /  14.2 °C 30.29 in /  1025.6 hPa SE 0.8 mph /  1.3 km/h 3.5 mph /  5.6 km/h 82 % 0.00 in /  0 mm
18:49 63.1 °F /  17.3 °C 57.5 °F /  14.2 °C 30.29 in /  1025.6 hPa Calm   1.2 mph /  1.9 km/h 82 % 0.00 in /  0 mm
18:54 63.0 °F /  17.2 °C 57.4 °F /  14.1 °C 30.29 in /  1025.6 hPa SE 0.2 mph /  0.3 km/h 3.5 mph /  5.6 km/h 82 % 0.00 in /  0 mm
18:59 62.9 °F /  17.2 °C 57.7 °F /  14.3 °C 30.29 in /  1025.6 hPa Calm   1.2 mph /  1.9 km/h 83 % 0.00 in /  0 mm
19:04 62.8 °F /  17.1 °C 57.6 °F /  14.2 °C 30.30 in /  1026 hPa SE 0.3 mph /  0.5 km/h 2.3 mph /  3.7 km/h 83 % 0.00 in /  0 mm
19:09 62.6 °F /  17 °C 57.4 °F /  14.1 °C 30.29 in /  1025.6 hPa SE 0.2 mph /  0.3 km/h 1.2 mph /  1.9 km/h 83 % 0.00 in /  0 mm
19:14 62.5 °F /  16.9 °C 57.3 °F /  14.1 °C 30.30 in /  1026 hPa SE 0.1 mph /  0.2 km/h 1.2 mph /  1.9 km/h 83 % 0.00 in /  0 mm
19:19 62.4 °F /  16.9 °C 57.2 °F /  14 °C 30.29 in /  1025.6 hPa Calm   1.2 mph /  1.9 km/h 83 % 0.00 in /  0 mm
19:24 62.3 °F /  16.8 °C 57.1 °F /  13.9 °C 30.29 in /  1025.6 hPa SSE 1.9 mph /  3.1 km/h 4.6 mph /  7.4 km/h 83 % 0.00 in /  0 mm
19:29 62.3 °F /  16.8 °C 57.4 °F /  14.1 °C 30.29 in /  1025.6 hPa Calm     84 % 0.00 in /  0 mm
19:34 62.2 °F /  16.8 °C 57.3 °F /  14.1 °C 30.29 in /  1025.6 hPa SSE 1.8 mph /  2.9 km/h 3.5 mph /  5.6 km/h 84 % 0.00 in /  0 mm
19:39 62.1 °F /  16.7 °C 57.2 °F /  14 °C 30.29 in /  1025.6 hPa SE 0.4 mph /  0.6 km/h 1.2 mph /  1.9 km/h 84 % 0.00 in /  0 mm
19:44 62.0 °F /  16.7 °C 57.1 °F /  13.9 °C 30.28 in /  1025.3 hPa SE 0.2 mph /  0.3 km/h 1.2 mph /  1.9 km/h 84 % 0.00 in /  0 mm
19:49 61.9 °F /  16.6 °C 57.0 °F /  13.9 °C 30.28 in /  1025.3 hPa SE 2.0 mph /  3.2 km/h 3.0 mph /  4.8 km/h 84 % 0.00 in /  0 mm
19:54 61.8 °F /  16.6 °C 57.2 °F /  14 °C 30.28 in /  1025.3 hPa SE 0.6 mph /  1 km/h 1.2 mph /  1.9 km/h 85 % 0.00 in /  0 mm
20:00 61.7 °F /  16.5 °C 57.1 °F /  13.9 °C 30.28 in /  1025.3 hPa SE 0.1 mph /  0.2 km/h 2.3 mph /  3.7 km/h 85 % 0.00 in /  0 mm
20:05 61.7 °F /  16.5 °C 57.1 °F /  13.9 °C 30.28 in /  1025.3 hPa SE 0.8 mph /  1.3 km/h 1.2 mph /  1.9 km/h 85 % 0.00 in /  0 mm
20:10 61.6 °F /  16.4 °C 57.0 °F /  13.9 °C 30.28 in /  1025.3 hPa Calm   1.0 mph /  1.6 km/h 85 % 0.00 in /  0 mm
20:15 61.6 °F /  16.4 °C 57.0 °F /  13.9 °C 30.28 in /  1025.3 hPa Calm     85 % 0.00 in /  0 mm
20:20 61.5 °F /  16.4 °C 56.9 °F /  13.8 °C 30.28 in /  1025.3 hPa Calm   2.3 mph /  3.7 km/h 85 % 0.00 in /  0 mm
20:25 61.4 °F /  16.3 °C 57.2 °F /  14 °C 30.28 in /  1025.3 hPa Calm   1.2 mph /  1.9 km/h 86 % 0.00 in /  0 mm
20:30 61.4 °F /  16.3 °C 57.2 °F /  14 °C 30.28 in /  1025.3 hPa SE 0.1 mph /  0.2 km/h 1.2 mph /  1.9 km/h 86 % 0.00 in /  0 mm
20:35 61.4 °F /  16.3 °C 57.5 °F /  14.2 °C 30.28 in /  1025.3 hPa SE 0.1 mph /  0.2 km/h 2.3 mph /  3.7 km/h 87 % 0.00 in /  0 mm
20:40 61.3 °F /  16.3 °C 57.4 °F /  14.1 °C 30.28 in /  1025.3 hPa Calm     87 % 0.00 in /  0 mm
20:45 61.3 °F /  16.3 °C 57.4 °F /  14.1 °C 30.29 in /  1025.6 hPa SE 0.2 mph /  0.3 km/h   87 % 0.00 in /  0 mm
20:50 61.3 °F /  16.3 °C 57.4 °F /  14.1 °C 30.29 in /  1025.6 hPa Calm     87 % 0.00 in /  0 mm
20:55 61.3 °F /  16.3 °C 57.7 °F /  14.3 °C 30.28 in /  1025.3 hPa SE 0.1 mph /  0.2 km/h 1.2 mph /  1.9 km/h 88 % 0.00 in /  0 mm
21:00 61.3 °F /  16.3 °C 57.7 °F /  14.3 °C 30.29 in /  1025.6 hPa SE 0.1 mph /  0.2 km/h   88 % 0.00 in /  0 mm
21:05 61.2 °F /  16.2 °C 57.6 °F /  14.2 °C 30.28 in /  1025.3 hPa Calm     88 % 0.00 in /  0 mm
21:10 61.2 °F /  16.2 °C 57.6 °F /  14.2 °C 30.29 in /  1025.6 hPa SE 0.8 mph /  1.3 km/h 3.5 mph /  5.6 km/h 88 % 0.00 in /  0 mm
21:15 61.2 °F /  16.2 °C 57.6 °F /  14.2 °C 30.30 in /  1026 hPa Calm     88 % 0.00 in /  0 mm
21:20 61.2 °F /  16.2 °C 57.6 °F /  14.2 °C 30.29 in /  1025.6 hPa Calm     88 % 0.00 in /  0 mm
21:25 61.2 °F /  16.2 °C 57.6 °F /  14.2 °C 30.29 in /  1025.6 hPa SE 0.2 mph /  0.3 km/h 1.2 mph /  1.9 km/h 88 % 0.00 in /  0 mm
21:31 61.2 °F /  16.2 °C 57.9 °F /  14.4 °C 30.28 in /  1025.3 hPa Calm     89 % 0.00 in /  0 mm
21:33 61.2 °F /  16.2 °C 57.9 °F /  14.4 °C 30.29 in /  1025.6 hPa Calm     89 % 0.00 in /  0 mm
21:38 61.2 °F /  16.2 °C 57.9 °F /  14.4 °C 30.29 in /  1025.6 hPa Calm   1.2 mph /  1.9 km/h 89 % 0.00 in /  0 mm
21:43 61.2 °F /  16.2 °C 57.9 °F /  14.4 °C 30.28 in /  1025.3 hPa Calm   1.0 mph /  1.6 km/h 89 % 0.00 in /  0 mm
21:48 61.2 °F /  16.2 °C 57.9 °F /  14.4 °C 30.28 in /  1025.3 hPa SE 0.5 mph /  0.8 km/h 2.3 mph /  3.7 km/h 89 % 0.00 in /  0 mm
21:53 61.2 °F /  16.2 °C 57.9 °F /  14.4 °C 30.27 in /  1024.9 hPa Calm   1.2 mph /  1.9 km/h 89 % 0.00 in /  0 mm
21:58 61.2 °F /  16.2 °C 57.9 °F /  14.4 °C 30.27 in /  1024.9 hPa SE 0.1 mph /  0.2 km/h 1.2 mph /  1.9 km/h 89 % 0.00 in /  0 mm
22:03 61.2 °F /  16.2 °C 57.9 °F /  14.4 °C 30.27 in /  1024.9 hPa Calm     89 % 0.00 in /  0 mm
22:08 61.2 °F /  16.2 °C 57.9 °F /  14.4 °C 30.27 in /  1024.9 hPa Calm     89 % 0.00 in /  0 mm
22:13 61.2 °F /  16.2 °C 57.9 °F /  14.4 °C 30.27 in /  1024.9 hPa SE 0.2 mph /  0.3 km/h   89 % 0.00 in /  0 mm
22:18 61.1 °F /  16.2 °C 57.8 °F /  14.3 °C 30.27 in /  1024.9 hPa Calm   1.2 mph /  1.9 km/h 89 % 0.00 in /  0 mm
22:23 61.1 °F /  16.2 °C 57.8 °F /  14.3 °C 30.27 in /  1024.9 hPa Calm     89 % 0.00 in /  0 mm
22:28 61.1 °F /  16.2 °C 57.8 °F /  14.3 °C 30.27 in /  1024.9 hPa Calm     89 % 0.00 in /  0 mm
22:33 61.1 °F /  16.2 °C 57.8 °F /  14.3 °C 30.26 in /  1024.6 hPa Calm     89 % 0.00 in /  0 mm
22:39 61.1 °F /  16.2 °C 58.1 °F /  14.5 °C 30.26 in /  1024.6 hPa Calm     90 % 0.00 in /  0 mm
22:44 61.1 °F /  16.2 °C 58.1 °F /  14.5 °C 30.26 in /  1024.6 hPa Calm     90 % 0.00 in /  0 mm
22:49 61.1 °F /  16.2 °C 58.1 °F /  14.5 °C 30.26 in /  1024.6 hPa Calm     90 % 0.00 in /  0 mm
22:54 61.1 °F /  16.2 °C 58.1 °F /  14.5 °C 30.26 in /  1024.6 hPa Calm     90 % 0.00 in /  0 mm
22:59 61.1 °F /  16.2 °C 58.1 °F /  14.5 °C 30.25 in /  1024.3 hPa Calm   1.2 mph /  1.9 km/h 90 % 0.00 in /  0 mm
23:04 61.1 °F /  16.2 °C 58.1 °F /  14.5 °C 30.25 in /  1024.3 hPa Calm     90 % 0.00 in /  0 mm
23:09 61.1 °F /  16.2 °C 58.1 °F /  14.5 °C 30.25 in /  1024.3 hPa Calm   1.2 mph /  1.9 km/h 90 % 0.00 in /  0 mm
23:14 61.1 °F /  16.2 °C 58.5 °F /  14.7 °C 30.25 in /  1024.3 hPa Calm     91 % 0.00 in /  0 mm
23:20 61.1 °F /  16.2 °C 58.5 °F /  14.7 °C 30.25 in /  1024.3 hPa Calm     91 % 0.00 in /  0 mm
23:25 61.2 °F /  16.2 °C 58.6 °F /  14.8 °C 30.25 in /  1024.3 hPa Calm     91 % 0.00 in /  0 mm
23:30 61.2 °F /  16.2 °C 58.6 °F /  14.8 °C 30.25 in /  1024.3 hPa Calm   1.2 mph /  1.9 km/h 91 % 0.00 in /  0 mm
23:35 61.3 °F /  16.3 °C 58.7 °F /  14.8 °C 30.26 in /  1024.6 hPa Calm     91 % 0.00 in /  0 mm
23:40 61.3 °F /  16.3 °C 58.7 °F /  14.8 °C 30.25 in /  1024.3 hPa Calm     91 % 0.00 in /  0 mm
23:44 61.3 °F /  16.3 °C 58.7 °F /  14.8 °C 30.25 in /  1024.3 hPa Calm   1.2 mph /  1.9 km/h 91 % 0.00 in /  0 mm
23:49 61.4 °F /  16.3 °C 58.7 °F /  14.8 °C 30.26 in /  1024.6 hPa Calm     91 % 0.00 in /  0 mm
23:54 61.4 °F /  16.3 °C 59.1 °F /  15.1 °C 30.26 in /  1024.6 hPa Calm     92 % 0.00 in /  0 mm
23:59 61.5 °F /  16.4 °C 59.2 °F /  15.1 °C 30.25 in /  1024.3 hPa Calm   1.2 mph /  1.9 km/h 92 % 0.00 in /  0 mm
Crab Meadow Weather
Compliments of Weather Underground - 3 mb

Script developed by  Jim McMurry - jmcmurry@mwt.net Adapted for the template by  Wim van der Kuil - Leuven-Template.eu

Weather Terms: Degree Day - Gauges the amount of heating or cooling needed for a building using 65 degrees as a baseline. To compute degree days, the average temperature for a day is taken and referenced to 65. An average temperature of 50 yields 15 heating degree days, while an average temperature of 75 would yield 10 cooling degree days.